Time;durP1;ratioP1;P1;durP2;ratioP2;P2;SDS_P1;SDS_P2;PMS_P1;PMS_P2;Temp;Humidity;BMP_temperature;BMP_pressure;BME280_temperature;BME280_humidity;BME280_pressure;Samples;Min_cycle;Max_cycle;Signal;HPM_P1;HPM_P2
2022/10/05 00:09:36;;;;;;;20.50;11.90;;;;;;;7.70;82.57;99350.54;432288;1271;97990;-39
2022/10/05 00:19:45;;;;;;;25.90;13.60;;;;;;;7.55;82.56;99340.85;432352;1271;111205;-39
2022/10/05 00:29:57;;;;;;;24.30;13.40;;;;;;;7.45;82.59;99327.55;432380;1271;109348;-39
2022/10/05 00:40:12;;;;;;;28.20;15.90;;;;;;;7.30;82.46;99307.13;432052;1271;96597;-41
2022/10/05 00:50:28;;;;;;;24.50;14.20;;;;;;;6.98;82.52;99296.43;432115;1271;108801;-40
2022/10/05 01:10:51;;;;;;;33.10;19.60;;;;;;;6.61;83.13;99293.84;432925;1261;110795;-40
2022/10/05 01:20:57;;;;;;;29.90;17.30;;;;;;;6.59;83.26;99303.55;432428;1270;108539;-41
2022/10/05 01:31:13;;;;;;;25.40;17.20;;;;;;;6.53;83.48;99279.82;432668;1269;98553;-39
2022/10/05 01:41:22;;;;;;;29.80;16.80;;;;;;;6.54;83.59;99273.48;432862;1270;108883;-39
2022/10/05 01:51:27;;;;;;;33.60;18.30;;;;;;;6.48;83.54;99249.15;432680;1270;97929;-40
2022/10/05 02:01:32;;;;;;;29.60;17.30;;;;;;;6.37;83.68;99257.48;432810;1270;111203;-40
2022/10/05 02:11:44;;;;;;;25.90;16.40;;;;;;;6.36;83.98;99264.46;432626;1270;108727;-40
2022/10/05 02:21:56;;;;;;;29.10;17.50;;;;;;;6.42;84.17;99269.34;432472;1270;96661;-41
2022/10/05 02:32:07;;;;;;;26.90;15.60;;;;;;;6.36;84.19;99278.29;432505;1270;108220;-40
2022/10/05 02:42:12;;;;;;;31.90;16.00;;;;;;;6.25;84.25;99275.54;432436;1269;97493;-40
2022/10/05 02:52:21;;;;;;;24.60;15.10;;;;;;;6.22;84.59;99293.73;432850;1270;111916;-40
2022/10/05 03:02:33;;;;;;;29.20;18.50;;;;;;;6.24;84.52;99305.06;432764;1270;108733;-40
2022/10/05 03:12:50;;;;;;;25.70;16.80;;;;;;;6.18;84.62;99281.45;432699;1269;97999;-40
2022/10/05 03:23:00;;;;;;;35.60;21.00;;;;;;;6.09;84.82;99264.77;432677;1270;108900;-40
2022/10/05 03:33:14;;;;;;;40.80;21.70;;;;;;;6.08;85.35;99231.29;432945;1269;97920;-39
2022/10/05 03:43:32;;;;;;;34.50;21.90;;;;;;;6.20;85.48;99215.58;432896;1269;111336;-40
2022/10/05 03:53:42;;;;;;;39.00;22.80;;;;;;;6.31;85.74;99228.70;431688;1270;108911;-40
2022/10/05 04:03:50;;;;;;;31.70;19.80;;;;;;;6.51;85.98;99250.22;433196;1270;97901;-40
2022/10/05 04:13:59;;;;;;;48.30;22.00;;;;;;;6.49;85.71;99211.92;432415;1270;109005;-40
2022/10/05 04:24:13;;;;;;;32.90;19.60;;;;;;;6.56;85.95;99206.40;433241;1270;97984;-39
2022/10/05 04:34:21;;;;;;;29.30;19.20;;;;;;;6.60;86.06;99203.19;433000;1270;111263;-40
2022/10/05 04:44:33;;;;;;;43.20;21.40;;;;;;;6.73;86.35;99215.12;433187;1269;108796;-40
2022/10/05 04:54:42;;;;;;;39.10;20.20;;;;;;;6.96;86.47;99233.45;433045;1270;97434;-40
2022/10/05 05:05:08;;;;;;;32.10;19.50;;;;;;;7.00;86.27;99224.63;433143;1270;109002;-40
2022/10/05 05:15:18;;;;;;;37.40;20.50;;;;;;;7.11;86.42;99222.55;433070;1270;97888;-40
2022/10/05 05:25:27;;;;;;;33.80;17.90;;;;;;;7.31;86.53;99222.30;433124;1270;111107;-40
2022/10/05 05:36:07;;;;;;;27.40;15.10;;;;;;;7.56;86.64;99217.58;432763;1270;108510;-40
2022/10/05 05:46:16;;;;;;;31.20;16.20;;;;;;;7.84;86.75;99228.94;432109;1270;98556;-42
2022/10/05 05:56:31;;;;;;;27.80;15.20;;;;;;;8.12;86.82;99244.59;432891;1270;107729;-41
2022/10/05 06:06:42;;;;;;;22.10;14.50;;;;;;;8.45;86.80;99234.34;432510;1269;96994;-41
2022/10/05 06:16:54;;;;;;;31.80;14.60;;;;;;;8.87;86.90;99244.55;432853;1270;111079;-41
2022/10/05 06:27:19;;;;;;;25.40;11.90;;;;;;;9.68;87.40;99236.92;433318;1270;108851;-41
2022/10/05 06:47:33;;;;;;;13.90;10.40;;;;;;;11.63;85.53;99200.23;432749;1270;111200;-40
2022/10/05 06:57:43;;;;;;;18.20;8.70;;;;;;;11.66;85.54;99213.48;433103;1270;108806;-41
2022/10/05 07:07:55;;;;;;;12.30;5.70;;;;;;;12.11;85.46;99217.98;432383;1270;96718;-40
2022/10/05 07:18:04;;;;;;;9.60;6.40;;;;;;;12.48;84.96;99226.26;432709;1270;111272;-41
2022/10/05 07:28:13;;;;;;;10.10;7.10;;;;;;;12.44;84.48;99234.95;432501;1270;108343;-41
2022/10/05 07:38:18;;;;;;;6.60;4.30;;;;;;;12.89;84.44;99242.80;432718;1268;98301;-41
2022/10/05 07:48:31;;;;;;;6.80;4.70;;;;;;;13.73;84.05;99241.35;432642;1270;112091;-41
2022/10/05 07:58:43;;;;;;;6.20;4.60;;;;;;;14.06;83.11;99250.33;432398;1270;108770;-41
2022/10/05 08:08:52;;;;;;;7.80;4.80;;;;;;;14.02;82.36;99257.02;432812;1270;98303;-40
2022/10/05 08:29:15;;;;;;;6.40;3.90;;;;;;;13.97;81.25;99243.86;432811;1270;108890;-40
2022/10/05 08:39:21;;;;;;;7.10;4.20;;;;;;;14.27;81.08;99243.91;432619;1270;97870;-40
2022/10/05 08:50:03;;;;;;;5.50;3.90;;;;;;;14.64;80.55;99235.71;432794;1270;97585;-40
2022/10/05 09:00:12;;;;;;;9.30;3.50;;;;;;;14.82;80.03;99234.41;432477;1270;110745;-40
2022/10/05 09:10:46;;;;;;;6.10;3.90;;;;;;;15.36;79.47;99234.20;432046;1269;108813;-41
2022/10/05 09:20:55;;;;;;;4.50;2.80;;;;;;;15.45;78.69;99235.06;432639;1270;108464;-40
2022/10/05 09:31:15;;;;;;;5.90;3.30;;;;;;;15.92;78.46;99241.90;433026;1270;97941;-40
2022/10/05 09:41:52;;;;;;;7.20;2.90;;;;;;;16.15;77.54;99240.09;432988;1270;111047;-40
2022/10/05 09:52:11;;;;;;;6.90;3.30;;;;;;;16.52;77.21;99241.10;432427;1270;108572;-41
2022/10/05 10:02:27;;;;;;;5.80;3.00;;;;;;;16.86;76.26;99238.38;433030;1270;97588;-39
2022/10/05 10:12:50;;;;;;;6.10;2.80;;;;;;;16.81;75.20;99242.16;432578;1270;400073;-40
2022/10/05 10:23:15;;;;;;;4.30;2.40;;;;;;;16.78;75.22;99244.88;432579;1270;111217;-41
2022/10/05 10:33:36;;;;;;;4.20;3.10;;;;;;;16.78;74.54;99244.51;432593;1270;108383;-41
2022/10/05 10:44:09;;;;;;;6.40;2.70;;;;;;;16.90;74.20;99229.80;433013;1270;97891;-39
2022/10/05 10:54:41;;;;;;;3.80;2.80;;;;;;;16.98;73.44;99224.89;432597;1270;98015;-40
2022/10/05 11:15:24;;;;;;;5.90;2.40;;;;;;;16.87;72.41;99224.80;432900;1270;108844;-40
2022/10/05 11:25:50;;;;;;;3.90;2.80;;;;;;;16.94;72.16;99222.19;433102;1270;97619;-40
2022/10/05 11:36:32;;;;;;;7.90;2.60;;;;;;;17.09;71.92;99208.67;432659;1270;111105;-40
2022/10/05 11:46:38;;;;;;;5.30;3.30;;;;;;;17.28;71.84;99210.48;432389;1270;109001;-40
2022/10/05 11:56:44;;;;;;;5.50;2.50;;;;;;;17.32;71.23;99197.26;432702;1268;97503;-39
2022/10/05 12:07:04;;;;;;;9.10;3.20;;;;;;;17.23;70.80;99180.26;432807;1270;97897;-40
2022/10/05 12:17:11;;;;;;;4.70;2.90;;;;;;;17.00;70.53;99177.02;432434;1270;111270;-41
2022/10/05 12:27:20;;;;;;;6.80;3.20;;;;;;;16.87;70.75;99173.64;432774;1270;108580;-41
2022/10/05 12:37:37;;;;;;;5.50;3.50;;;;;;;16.70;70.49;99175.79;432723;1270;98058;-41
2022/10/05 12:47:45;;;;;;;5.10;2.80;;;;;;;16.62;70.36;99179.14;432582;1270;98150;-41
2022/10/05 12:58:00;;;;;;;8.20;4.10;;;;;;;16.71;70.43;99174.25;432827;1270;111069;-42
2022/10/05 13:18:28;;;;;;;7.70;3.40;;;;;;;17.03;69.25;99152.84;432682;1269;106854;-41
2022/10/05 13:28:38;;;;;;;7.00;3.30;;;;;;;16.79;68.91;99142.33;432762;1270;97700;-41
2022/10/05 13:38:47;;;;;;;6.70;3.40;;;;;;;16.69;68.99;99143.10;432644;1270;110813;-41
2022/10/05 13:48:57;;;;;;;6.70;3.10;;;;;;;16.67;68.99;99142.61;432330;1270;109136;-41
2022/10/05 13:59:10;;;;;;;7.20;4.00;;;;;;;16.57;69.14;99135.42;433012;1270;97468;-40
2022/10/05 14:09:33;;;;;;;4.40;3.60;;;;;;;16.47;69.15;99132.94;432918;1270;111098;-42
2022/10/05 14:19:44;;;;;;;6.30;3.80;;;;;;;16.30;69.19;99128.16;432719;1270;108953;-41
2022/10/05 14:29:54;;;;;;;8.10;3.50;;;;;;;16.18;69.25;99120.27;432780;1270;97507;-41
2022/10/05 14:40:02;;;;;;;9.00;3.90;;;;;;;16.05;69.27;99112.53;432917;1270;109226;-41
2022/10/05 14:50:16;;;;;;;9.50;4.50;;;;;;;15.84;69.38;99115.27;432794;1270;108932;-42
2022/10/05 15:00:23;;;;;;;10.80;4.90;;;;;;;15.62;69.64;99101.70;432712;1270;108777;-40
2022/10/05 15:10:28;;;;;;;9.40;6.10;;;;;;;15.44;69.60;99095.68;432524;1270;97494;-40
2022/10/05 15:50:59;;;;;;;13.00;6.30;;;;;;;14.74;70.71;99075.79;432705;1270;108862;-41
2022/10/05 16:01:11;;;;;;;10.80;5.60;;;;;;;14.58;70.86;99070.66;432778;1270;97526;-41
2022/10/05 16:11:21;;;;;;;14.50;6.70;;;;;;;14.46;70.91;99050.22;432918;1270;111397;-41
2022/10/05 16:21:28;;;;;;;14.60;8.60;;;;;;;14.29;71.17;99047.60;432964;1270;108724;-40
2022/10/05 16:41:41;;;;;;;9.30;5.20;;;;;;;13.91;71.33;99047.69;432541;1270;111221;-39
2022/10/05 16:51:49;;;;;;;14.00;7.00;;;;;;;13.83;71.55;99051.66;432575;1270;108935;-41
2022/10/05 17:01:55;;;;;;;13.80;7.50;;;;;;;13.76;71.83;99058.57;432692;1269;97493;-41
2022/10/05 17:12:11;;;;;;;13.70;6.30;;;;;;;13.67;72.03;99063.22;432760;1270;111206;-41
2022/10/05 17:22:21;;;;;;;11.80;5.90;;;;;;;13.63;72.02;99056.52;432127;1270;108836;-41
2022/10/05 17:32:34;;;;;;;10.60;5.60;;;;;;;13.60;72.14;99052.46;432588;1270;97594;-41
2022/10/05 18:03:35;;;;;;;10.50;6.60;;;;;;;13.33;72.70;99050.55;432658;1271;108397;-40
2022/10/05 18:24:00;;;;;;;12.40;8.00;;;;;;;13.34;73.12;99049.56;432709;1270;108340;-40
2022/10/05 18:34:16;;;;;;;15.60;8.10;;;;;;;13.31;73.39;99043.55;432601;1271;108925;-39
2022/10/05 18:44:29;;;;;;;16.00;10.40;;;;;;;13.31;73.45;99046.85;432395;1270;97879;-42
2022/10/05 18:54:39;;;;;;;11.20;6.10;;;;;;;13.38;73.56;99048.46;432666;1271;108847;-42
2022/10/05 19:04:49;;;;;;;9.80;6.70;;;;;;;13.44;73.83;99049.63;432520;1271;98595;-41
2022/10/05 19:14:54;;;;;;;9.60;7.40;;;;;;;13.38;73.76;99046.90;432540;1271;98567;-40
2022/10/05 19:25:14;;;;;;;9.20;6.30;;;;;;;13.29;73.89;99039.17;432448;1270;96678;-42
2022/10/05 19:45:32;;;;;;;10.70;6.10;;;;;;;13.30;74.27;99021.50;432456;1270;97507;-41
2022/10/05 19:55:35;;;;;;;14.20;6.80;;;;;;;13.28;74.40;99025.64;432880;1271;109017;-41
2022/10/05 20:05:42;;;;;;;12.50;6.80;;;;;;;13.17;74.51;99024.82;433119;1270;97910;-40
2022/10/05 20:37:10;;;;;;;9.40;5.00;;;;;;;13.11;74.94;99049.46;432879;1270;97490;-40
2022/10/05 20:47:17;;;;;;;6.60;4.60;;;;;;;13.11;75.10;99051.00;432213;1270;109121;-41
2022/10/05 20:57:25;;;;;;;9.40;6.30;;;;;;;13.06;75.15;99050.84;432435;1270;98305;-41
2022/10/05 21:07:34;;;;;;;12.90;5.90;;;;;;;12.99;75.09;99049.10;432319;1270;110743;-41
2022/10/05 21:17:40;;;;;;;14.20;5.30;;;;;;;12.97;75.20;99061.85;432369;1270;108706;-43
2022/10/05 21:37:53;;;;;;;10.80;5.60;;;;;;;12.87;75.41;99070.30;432480;1270;108409;-41
2022/10/05 21:48:01;;;;;;;7.20;5.20;;;;;;;12.74;75.49;99076.23;432281;1270;108524;-40
2022/10/05 21:58:08;;;;;;;10.60;4.30;;;;;;;12.64;75.54;99086.94;432451;1270;98058;-40
2022/10/05 22:08:18;;;;;;;7.50;4.20;;;;;;;12.60;75.67;99096.15;432193;1270;107902;-40
2022/10/05 22:28:34;;;;;;;12.30;5.40;;;;;;;12.44;75.92;99102.61;432401;1270;110666;-42
2022/10/05 22:38:41;;;;;;;5.60;4.50;;;;;;;12.35;75.95;99100.50;431965;1271;109006;-39
2022/10/05 22:48:48;;;;;;;5.20;3.30;;;;;;;12.36;76.08;99105.58;432446;1270;97469;-41
2022/10/05 22:58:56;;;;;;;5.40;3.10;;;;;;;12.43;76.12;99120.30;432451;1270;111668;-40
2022/10/05 23:09:03;;;;;;;5.00;4.20;;;;;;;12.44;76.25;99129.30;432392;1270;108693;-40
2022/10/05 23:29:17;;;;;;;5.00;3.50;;;;;;;12.36;76.31;99151.44;432268;1270;111375;-40
2022/10/05 23:39:24;;;;;;;6.80;3.30;;;;;;;12.38;76.30;99162.91;432239;1269;109011;-41
2022/10/05 23:49:31;;;;;;;6.30;3.40;;;;;;;12.40;76.38;99165.52;432403;1270;97872;-41
2022/10/05 23:59:38;;;;;;;6.70;3.60;;;;;;;12.34;76.52;99180.67;432280;1270;108783;-40
